Saturday, February 24, 2018, 10:25 PM EST
Back to Local

KDAW, Skyhaven Airport

Location: Rochester, NH, United States Lat: 43.283
Local Time: 10:25 PM EST ( 3:25 GMT) Lon: -70.917
Time Zone: US/Eastern Elev: 321 ft

Show me the last for .
Show Decoded

2018-02-24 21:51 METAR KDAW 250251Z AUTO 32005KT 10SM CLR 00/M03 A3027 RMK AO2 SLP250 T00001033
                 53029 =
2018-02-24 20:51 METAR KDAW 250151Z AUTO VRB03KT 10SM CLR 03/M03 A3024 RMK AO2 SLP240 T00281028 =
2018-02-24 19:51 METAR KDAW 250051Z AUTO 30006KT 10SM CLR 03/M02 A3021 RMK AO2 PRESRR SLP229
                 T00331022 =
2018-02-24 18:51 METAR KDAW 242351Z AUTO 31006KT 10SM CLR 05/M02 A3019 RMK AO2 SLP221 T00501022
                 10094 20039 51024 =
2018-02-24 17:51 METAR KDAW 242251Z AUTO 00000KT 10SM CLR 06/M02 A3018 RMK AO2 SLP221 T00611022 =
2018-02-24 16:51 METAR KDAW 242151Z AUTO 30010KT 10SM CLR 07/M02 A3015 RMK AO2 SLP210 T00721017 =
2018-02-24 15:51 METAR KDAW 242051Z AUTO 31010KT 10SM CLR 07/M01 A3011 RMK AO2 SLP197 T00721006
                 53015 =
2018-02-24 14:51 METAR KDAW 241951Z AUTO 29010G17KT 260V320 10SM FEW042 08/00 A3010 RMK AO2
                 SLP191 T00830000 =
2018-02-24 13:51 METAR KDAW 241851Z AUTO 31016G21KT 10SM CLR 09/00 A3008 RMK AO2 SLP186 T00940000
                 =
2018-02-24 12:51 METAR KDAW 241751Z AUTO 29009G15KT 10SM FEW042 09/00 A3007 RMK AO2 SLP181
                 T00890000 10094 20050 50005 =
2018-02-24 11:51 METAR KDAW 241651Z AUTO 32012G18KT 10SM FEW040 09/01 A3008 RMK AO2 PK WND
                 30028/1605 SLP185 T00940006 =
2018-02-24 10:51 METAR KDAW 241551Z AUTO 30013G23KT 10SM SCT036 09/01 A3005 RMK AO2 SLP176
                 T00940006 =
2018-02-24 09:51 METAR KDAW 241451Z AUTO 30013G21KT 10SM CLR 08/02 A3005 RMK AO2 PK WND
                 29026/1431 SLP176 T00830017 51018 =
2018-02-24 08:51 METAR KDAW 241351Z AUTO 30011G19KT 10SM CLR 08/03 A3004 RMK AO2 SLP173 T00780028
                 =
2018-02-24 07:51 METAR KDAW 241251Z AUTO VRB05KT 10SM CLR 06/03 A3003 RMK AO2 SLP169 T00610033 =
2018-02-24 06:51 METAR KDAW 241151Z AUTO 27007KT 230V310 10SM CLR 05/03 A3000 RMK AO2 SLP158
                 70014 T00500033 10050 20006 53016 =
2018-02-24 05:51 METAR KDAW 241051Z AUTO 26005KT 10SM CLR 03/03 A2998 RMK AO2 SLP152 T00330028 =
2018-02-24 04:51 METAR KDAW 240951Z AUTO 00000KT 6SM BR CLR 01/01 A2996 RMK AO2 SLP147 T00110011
                 =
2018-02-24 04:38 METAR KDAW 240938Z AUTO VRB03KT 2 1/2SM BR FEW002 01/01 A2996 RMK AO2 VIS 1
                 1/2V5 T00060006 =
2018-02-24 04:21 METAR KDAW 240921Z AUTO 00000KT 1 3/4SM BR FEW002 01/01 A2996 RMK AO2 T00060006
                 =
2018-02-24 03:51 METAR KDAW 240851Z AUTO 00000KT 9SM CLR 01/01 A2995 RMK AO2 SLP143 T00110011
                 58005 =
2018-02-24 03:32 METAR KDAW 240832Z AUTO 00000KT 5SM BR SCT026 01/01 A2995 RMK AO2 T00110011 =
2018-02-24 03:08 METAR KDAW 240808Z AUTO 00000KT 10SM BKN027 02/02 A2996 RMK AO2 T00170017 =
2018-02-24 02:51 METAR KDAW 240751Z AUTO 00000KT 10SM FEW010 SCT014 02/02 A2996 RMK AO2 SLP147
                 T00170017 =
2018-02-24 02:47 METAR KDAW 240747Z AUTO 00000KT 10SM FEW010 SCT014 02/02 A2996 RMK AO2 =
2018-02-24 02:39 METAR KDAW 240739Z AUTO 00000KT 10SM SCT010 BKN013 02/02 A2997 RMK AO2 T00170017
                 =
2018-02-24 01:51 METAR KDAW 240651Z AUTO VRB03KT 10SM SCT003 01/01 A2997 RMK AO2 SLP149 T00110011
                 =
2018-02-24 01:43 METAR KDAW 240643Z AUTO 00000KT 10SM BKN003 01/01 A2998 RMK AO2 T00110011 =
2018-02-24 00:51 METAR KDAW 240551Z AUTO VRB03KT 10SM FEW002 OVC009 01/01 A2999 RMK AO2 CIG
                 007V013 SLP156 60010 T00110011 10011 20011 56047 =
2018-02-24 00:40 METAR KDAW 240540Z AUTO 00000KT 10SM FEW002 OVC010 01/01 A2999 RMK AO2 CIG
                 007V013 T00110011 =
2018-02-24 00:20 METAR KDAW 240520Z AUTO 21003KT 9SM FEW003 OVC009 01/01 A3001 RMK AO2 CIG
                 006V011 T00110011 =
2018-02-23 23:51 METAR KDAW 240451Z AUTO VRB03KT 5SM BR OVC002 01/01 A3002 RMK AO2 SLP166
                 T00110011 400331056 =
2018-02-23 22:51 METAR KDAW 240351Z AUTO 18005KT 5SM BR OVC002 01/01 A3007 RMK AO2 PRESFR SLP184
                 T00110011 =

Support USWX by starting your Amazon purchase here.